Time;durP1;ratioP1;P1;durP2;ratioP2;P2;SDS_P1;SDS_P2;PMS_P1;PMS_P2;Temp;Humidity;BMP_temperature;BMP_pressure;BME280_temperature;BME280_humidity;BME280_pressure;Samples;Min_cycle;Max_cycle;Signal;HPM_P1;HPM_P2
2021/04/04 00:00:54;;;;;;;1.9;1.3;;;;;;;3.5;69.12109;942.4496;;;;
2021/04/04 00:03:19;;;;;;;1.8;1.4;;;;;;;3.37;69.44824;942.3837;;;;
2021/04/04 00:05:45;;;;;;;2.1;1.5;;;;;;;3.18;70.07813;942.3973;;;;
2021/04/04 00:08:11;;;;;;;2.1;1.4;;;;;;;3.09;70.31152;942.3517;;;;
2021/04/04 00:10:38;;;;;;;4.5;1.6;;;;;;;3.14;70.44238;942.3851;;;;
2021/04/04 00:13:06;;;;;;;2.1;1.2;;;;;;;2.94;71.04883;942.3323;;;;
2021/04/04 00:15:41;;;;;;;2.9;1.5;;;;;;;2.86;71.51758;942.3694;;;;
2021/04/04 00:18:09;;;;;;;1.9;1.5;;;;;;;2.66;71.85352;942.28;;;;
2021/04/04 00:20:34;;;;;;;1.1;1;;;;;;;2.58;72.17773;942.2747;;;;
2021/04/04 00:23:06;;;;;;;3.5;1.6;;;;;;;2.64;71.90527;942.2908;;;;
2021/04/04 00:25:36;;;;;;;2.6;1.4;;;;;;;2.66;71.83105;942.2756;;;;
2021/04/04 00:28:03;;;;;;;2.1;1.4;;;;;;;2.73;71.6416;942.2667;;;;
2021/04/04 00:30:28;;;;;;;2.8;1.3;;;;;;;2.82;70.84863;942.271;;;;
2021/04/04 00:32:56;;;;;;;4;2.6;;;;;;;2.76;70.88379;942.2224;;;;
2021/04/04 00:35:21;;;;;;;4.8;2.8;;;;;;;2.81;71.375;942.2375;;;;
2021/04/04 00:37:49;;;;;;;9.5;6.3;;;;;;;2.86;71.49512;942.2216;;;;
2021/04/04 00:40:14;;;;;;;2.4;1.4;;;;;;;2.81;71.45215;942.2051;;;;
2021/04/04 00:42:39;;;;;;;2.4;1.5;;;;;;;2.79;71.53906;942.1627;;;;
2021/04/04 00:45:08;;;;;;;2.6;1.7;;;;;;;2.69;71.43262;942.1314;;;;
2021/04/04 00:47:33;;;;;;;1.3;1.2;;;;;;;2.65;71.53809;942.1383;;;;
2021/04/04 00:50:01;;;;;;;3.1;1.3;;;;;;;2.62;71.53223;942.099;;;;
2021/04/04 00:52:26;;;;;;;3.1;1.3;;;;;;;2.55;71.25293;942.113;;;;
2021/04/04 00:54:52;;;;;;;1.9;1.2;;;;;;;2.54;71.35254;942.0945;;;;
2021/04/04 00:57:17;;;;;;;2.8;1.5;;;;;;;2.59;71.15918;942.1174;;;;
2021/04/04 00:59:45;;;;;;;2.4;1.4;;;;;;;2.55;71.30859;942.1161;;;;
2021/04/04 01:02:14;;;;;;;1.5;1.2;;;;;;;2.6;71.46387;942.092;;;;
2021/04/04 01:04:38;;;;;;;1.8;1.2;;;;;;;2.66;70.95703;942.137;;;;
2021/04/04 01:07:00;;;;;;;2.6;1.5;;;;;;;2.66;70.87891;942.1181;;;;
2021/04/04 01:09:25;;;;;;;2.9;1.7;;;;;;;2.62;71.02832;942.106;;;;
2021/04/04 01:11:50;;;;;;;1.5;1.2;;;;;;;2.55;71.25098;942.0781;;;;
2021/04/04 01:14:15;;;;;;;1.2;1.1;;;;;;;2.47;71.48535;942.1619;;;;
2021/04/04 01:16:50;;;;;;;1.7;1.3;;;;;;;2.49;71.46582;942.1383;;;;
2021/04/04 01:19:16;;;;;;;2.8;1.4;;;;;;;2.49;71.34277;942.1116;;;;
2021/04/04 01:21:42;;;;;;;6.3;1.4;;;;;;;2.47;71.31738;942.1116;;;;
2021/04/04 01:24:08;;;;;;;1.1;0.9;;;;;;;2.32;71.40527;942.1611;;;;
2021/04/04 01:26:36;;;;;;;1.8;1.1;;;;;;;2.35;71.46582;942.1216;;;;
2021/04/04 01:29:05;;;;;;;1.9;1.4;;;;;;;2.34;71.74414;942.1478;;;;
2021/04/04 01:31:29;;;;;;;2.8;2;;;;;;;2.38;71.3916;942.035;;;;
2021/04/04 01:33:59;;;;;;;18.5;8.5;;;;;;;2.41;71.15039;942.1245;;;;
2021/04/04 01:36:24;;;;;;;2.3;1.7;;;;;;;2.37;70.96484;942.087;;;;
2021/04/04 01:38:50;;;;;;;4.1;1.8;;;;;;;2.16;71.5791;942.0906;;;;
2021/04/04 01:41:15;;;;;;;1.6;1.3;;;;;;;2.11;71.89648;942.0938;;;;
2021/04/04 01:43:44;;;;;;;1.8;1.4;;;;;;;2.09;72.08203;942.1297;;;;
2021/04/04 01:46:10;;;;;;;2.1;1.1;;;;;;;2.15;71.90234;942.1505;;;;
2021/04/04 01:48:35;;;;;;;1.7;1.3;;;;;;;2.16;71.67871;942.1909;;;;
2021/04/04 01:51:01;;;;;;;2;1.4;;;;;;;2.16;71.74609;942.1783;;;;
2021/04/04 01:53:26;;;;;;;1.4;1.1;;;;;;;2.16;71.45605;942.1361;;;;
2021/04/04 01:55:51;;;;;;;2.7;0.8;;;;;;;2.07;71.60938;942.1443;;;;
2021/04/04 01:58:16;;;;;;;1.8;1.2;;;;;;;2.04;71.85059;942.1257;;;;
2021/04/04 02:00:45;;;;;;;1.2;1;;;;;;;2.08;71.82129;942.1078;;;;
2021/04/04 02:03:10;;;;;;;1.8;1;;;;;;;2.08;71.50977;942.0861;;;;
2021/04/04 02:05:35;;;;;;;0.6;0.6;;;;;;;2.04;72.0166;942.0815;;;;
2021/04/04 02:08:01;;;;;;;2;1.1;;;;;;;1.99;71.84277;942.0745;;;;
2021/04/04 02:10:28;;;;;;;2.5;0.9;;;;;;;1.69;72.26074;942.087;;;;
2021/04/04 02:12:57;;;;;;;1.2;0.8;;;;;;;1.66;72.63672;942.0733;;;;
2021/04/04 02:15:28;;;;;;;3.2;1.2;;;;;;;1.53;72.79395;942.0479;;;;
2021/04/04 02:17:54;;;;;;;1.1;1;;;;;;;1.56;72.86523;942.0266;;;;
2021/04/04 02:20:22;;;;;;;2.7;1.2;;;;;;;1.55;72.91797;942.0314;;;;
2021/04/04 02:22:49;;;;;;;1.1;0.9;;;;;;;1.5;73.13281;941.9794;;;;
2021/04/04 02:25:14;;;;;;;1.2;1;;;;;;;1.42;73.63281;941.9487;;;;
2021/04/04 02:27:43;;;;;;;15.3;1;;;;;;;1.35;73.88965;941.9467;;;;
2021/04/04 02:30:08;;;;;;;1.9;1;;;;;;;1.47;73.74414;942.0167;;;;
2021/04/04 02:32:37;;;;;;;1.1;1;;;;;;;1.45;73.58105;942.0223;;;;
2021/04/04 02:35:00;;;;;;;1.6;0.9;;;;;;;1.42;73.75684;941.9944;;;;
2021/04/04 02:37:29;;;;;;;1.5;1.1;;;;;;;1.47;73.85449;942.0829;;;;
2021/04/04 02:39:54;;;;;;;1.2;0.9;;;;;;;1.49;73.5459;942.0136;;;;
2021/04/04 02:42:20;;;;;;;2.5;0.9;;;;;;;1.44;73.15625;942.0638;;;;
2021/04/04 02:44:46;;;;;;;1.1;1;;;;;;;1.39;72.95703;942.0186;;;;
2021/04/04 02:47:11;;;;;;;1.1;0.8;;;;;;;1.21;73.5293;942.0262;;;;
2021/04/04 02:49:36;;;;;;;2;1.1;;;;;;;1.1;73.96875;942.0701;;;;
2021/04/04 02:52:04;;;;;;;1.4;1.3;;;;;;;1.14;73.90723;942.1375;;;;
2021/04/04 02:54:32;;;;;;;2.2;1.3;;;;;;;1.21;73.90918;942.1188;;;;
2021/04/04 02:56:57;;;;;;;4.2;1.1;;;;;;;1.28;73.66504;942.0928;;;;
2021/04/04 02:59:23;;;;;;;1.8;1;;;;;;;1.19;73.6377;942.0826;;;;
2021/04/04 03:01:48;;;;;;;0.5;0.5;;;;;;;1.05;74.06055;942.0309;;;;
2021/04/04 03:04:14;;;;;;;2.6;1.4;;;;;;;0.94;74.40918;942.0955;;;;
2021/04/04 03:06:39;;;;;;;1.3;1;;;;;;;0.82;74.8584;942.0756;;;;
2021/04/04 03:09:05;;;;;;;2.8;1;;;;;;;0.8;74.83105;942.1251;;;;
2021/04/04 03:11:30;;;;;;;0.8;0.7;;;;;;;0.83;74.87012;942.064;;;;
2021/04/04 03:13:58;;;;;;;2.4;1.5;;;;;;;0.86;74.54004;942.0545;;;;
2021/04/04 03:16:30;;;;;;;1.1;0.9;;;;;;;0.83;74.61426;942.0808;;;;
2021/04/04 03:19:01;;;;;;;1.3;1;;;;;;;0.86;74.41699;942.0633;;;;
2021/04/04 03:21:31;;;;;;;5.4;1.6;;;;;;;0.86;74.49512;942.0351;;;;
2021/04/04 03:23:56;;;;;;;1.6;1.2;;;;;;;0.9;74.26855;942.0676;;;;
2021/04/04 03:26:24;;;;;;;1.1;1;;;;;;;1.06;73.89551;942.0349;;;;
2021/04/04 03:28:50;;;;;;;2.5;1.8;;;;;;;1.15;73.54199;942.0165;;;;
2021/04/04 03:31:18;;;;;;;1.4;1;;;;;;;1.2;73.2832;942.0031;;;;
2021/04/04 03:33:43;;;;;;;1.7;1.1;;;;;;;1.14;73.5625;942.0185;;;;
2021/04/04 03:36:11;;;;;;;1.6;1.2;;;;;;;1.17;73.51367;942.0295;;;;
2021/04/04 03:38:36;;;;;;;10.1;1.8;;;;;;;1.1;73.83398;942.0193;;;;
2021/04/04 03:41:03;;;;;;;0.5;0.5;;;;;;;1.16;73.68945;941.9775;;;;
2021/04/04 03:43:28;;;;;;;1.9;0.9;;;;;;;1.12;73.77246;942.0497;;;;
2021/04/04 03:45:55;;;;;;;0.7;0.7;;;;;;;1.02;74.04492;942.0469;;;;
2021/04/04 03:48:21;;;;;;;1.2;0.7;;;;;;;0.89;74.30176;942.0369;;;;
2021/04/04 03:50:46;;;;;;;0.5;0.5;;;;;;;0.8;74.63086;941.9871;;;;
2021/04/04 03:53:13;;;;;;;1.6;1.1;;;;;;;0.68;75.1123;942.0109;;;;
2021/04/04 03:55:38;;;;;;;2.7;1.1;;;;;;;0.55;75.73438;942.0084;;;;
2021/04/04 03:58:05;;;;;;;0.7;0.6;;;;;;;0.46;75.9209;941.959;;;;
2021/04/04 04:02:30;;;;;;;4.2;1.1;;;;;;;0.53;76.0459;941.9738;;;;
2021/04/04 04:04:55;;;;;;;2.5;1.4;;;;;;;0.43;76.41602;941.9597;;;;
2021/04/04 04:07:24;;;;;;;0.9;0.8;;;;;;;0.38;76.93066;942.0011;;;;
2021/04/04 04:09:49;;;;;;;2.1;1.1;;;;;;;0.53;76.55566;942.0305;;;;
2021/04/04 04:12:15;;;;;;;1.3;0.9;;;;;;;0.58;76.31055;942.0069;;;;
2021/04/04 04:14:43;;;;;;;1.6;1.2;;;;;;;0.66;75.98828;942.0236;;;;
2021/04/04 04:17:17;;;;;;;1.4;1.1;;;;;;;0.65;75.77441;941.9874;;;;
2021/04/04 04:19:42;;;;;;;4.6;1.2;;;;;;;0.59;76.02148;941.9992;;;;
2021/04/04 04:22:08;;;;;;;1;0.9;;;;;;;0.57;76.0166;941.9574;;;;
2021/04/04 04:24:37;;;;;;;1.3;1.1;;;;;;;0.65;75.65234;941.945;;;;
2021/04/04 04:27:07;;;;;;;1.2;1;;;;;;;0.57;75.46094;941.9227;;;;
2021/04/04 04:29:37;;;;;;;1.7;1;;;;;;;0.64;75.4834;941.843;;;;
2021/04/04 04:32:02;;;;;;;0.9;0.8;;;;;;;0.66;75.0625;941.9647;;;;
2021/04/04 04:34:32;;;;;;;1.2;0.8;;;;;;;0.56;75.04688;941.9399;;;;
2021/04/04 04:36:57;;;;;;;4.4;1.4;;;;;;;0.48;75.31055;941.8505;;;;
2021/04/04 04:39:26;;;;;;;0.8;0.7;;;;;;;0.37;75.60352;941.994;;;;
2021/04/04 04:41:51;;;;;;;0.8;0.8;;;;;;;0.26;76.01855;942.0397;;;;
2021/04/04 04:44:17;;;;;;;0.9;0.6;;;;;;;0.27;75.86426;941.9895;;;;
2021/04/04 04:46:43;;;;;;;1.5;1.1;;;;;;;0.29;75.79004;942.0524;;;;
2021/04/04 04:49:10;;;;;;;1.2;0.8;;;;;;;0.35;75.77734;942.038;;;;
2021/04/04 04:51:35;;;;;;;7.5;1.1;;;;;;;0.27;76.40918;942.0857;;;;
2021/04/04 04:54:02;;;;;;;0.9;0.8;;;;;;;0.32;76.54199;942.0117;;;;
2021/04/04 04:56:27;;;;;;;1.8;1.1;;;;;;;0.31;76.50684;942.0226;;;;
2021/04/04 04:58:55;;;;;;;1.9;0.8;;;;;;;0.43;76.11523;942.1006;;;;
2021/04/04 05:01:20;;;;;;;1.9;1.1;;;;;;;0.53;75.7334;942.0991;;;;
2021/04/04 05:03:45;;;;;;;0.6;0.6;;;;;;;0.56;75.62598;942.0772;;;;
2021/04/04 05:06:10;;;;;;;0.8;0.8;;;;;;;0.66;75.26367;942.0712;;;;
2021/04/04 05:08:37;;;;;;;0.6;0.6;;;;;;;0.69;74.8457;942.0371;;;;
2021/04/04 05:11:02;;;;;;;0.8;0.8;;;;;;;0.6;75.04199;942.0812;;;;
2021/04/04 05:13:27;;;;;;;2.1;0.9;;;;;;;0.6;74.96387;942.0803;;;;
2021/04/04 05:15:56;;;;;;;0.4;0.4;;;;;;;0.42;75.34375;942.0666;;;;
2021/04/04 05:18:22;;;;;;;1.7;1;;;;;;;0.37;75.64648;942.1244;;;;
2021/04/04 05:20:47;;;;;;;1.4;1.2;;;;;;;0.32;75.86133;942.1244;;;;
2021/04/04 05:23:15;;;;;;;2.4;0.9;;;;;;;0.27;76.07422;942.199;;;;
2021/04/04 05:25:40;;;;;;;1.4;1.3;;;;;;;0.27;76.1416;942.1467;;;;
2021/04/04 05:28:05;;;;;;;7.1;1.2;;;;;;;0.29;76.05762;942.031;;;;
2021/04/04 05:30:34;;;;;;;2.6;1;;;;;;;0.28;76.07813;942.163;;;;
2021/04/04 05:32:59;;;;;;;3.2;1.5;;;;;;;0.3;76.03516;942.1788;;;;
2021/04/04 05:35:24;;;;;;;0.8;0.8;;;;;;;0.45;75.72852;942.1259;;;;
2021/04/04 05:37:50;;;;;;;0.8;0.8;;;;;;;0.68;74.9541;942.1093;;;;
2021/04/04 05:40:15;;;;;;;1;0.6;;;;;;;0.85;74.4834;942.1443;;;;
2021/04/04 05:42:41;;;;;;;1.7;1.2;;;;;;;1.02;73.9668;942.1325;;;;
2021/04/04 05:45:06;;;;;;;1.4;0.7;;;;;;;1.23;72.83008;942.1658;;;;
2021/04/04 05:47:33;;;;;;;1.6;1.4;;;;;;;1.92;71.22461;942.1219;;;;
2021/04/04 05:49:56;;;;;;;2;1.2;;;;;;;2.29;68.54297;942.0425;;;;
2021/04/04 05:52:21;;;;;;;2.2;1.3;;;;;;;2.88;66.49707;942.0938;;;;
2021/04/04 05:54:47;;;;;;;1.5;1.2;;;;;;;3.17;65.28516;942.1075;;;;
2021/04/04 05:57:12;;;;;;;4.1;1.2;;;;;;;3.07;64.97754;942.0958;;;;
2021/04/04 05:59:37;;;;;;;2.1;1.5;;;;;;;3.39;64.00488;942.1273;;;;
2021/04/04 06:02:03;;;;;;;1.7;1.1;;;;;;;4.13;62.56445;942.1091;;;;
2021/04/04 06:04:31;;;;;;;1.5;1.1;;;;;;;4.48;59.9248;942.0397;;;;
2021/04/04 06:06:57;;;;;;;3.9;1.2;;;;;;;4.84;58.64551;942.101;;;;
2021/04/04 06:09:22;;;;;;;1;0.9;;;;;;;5.71;54.93652;942.0538;;;;
2021/04/04 06:11:47;;;;;;;1.8;1;;;;;;;6.5;53.13965;942.0546;;;;
2021/04/04 06:14:12;;;;;;;1.1;1;;;;;;;6.74;55.68164;942.0209;;;;
2021/04/04 06:16:38;;;;;;;2.2;1.2;;;;;;;7.07;50.79688;941.9877;;;;
2021/04/04 06:19:03;;;;;;;1.4;1.1;;;;;;;6.91;50.8916;941.9416;;;;
2021/04/04 06:21:28;;;;;;;11.6;1.5;;;;;;;7;51.07129;941.925;;;;
2021/04/04 06:23:53;;;;;;;1.2;0.9;;;;;;;6.88;50.65137;941.9675;;;;
2021/04/04 06:26:18;;;;;;;1;0.9;;;;;;;7.29;49.32813;941.9299;;;;
2021/04/04 06:28:46;;;;;;;1.3;1;;;;;;;7.67;49.37012;941.95;;;;
2021/04/04 06:31:11;;;;;;;0.8;0.7;;;;;;;8.36;46.37207;941.9342;;;;
2021/04/04 06:33:37;;;;;;;1.3;0.8;;;;;;;8.38;45.95313;941.9307;;;;
2021/04/04 06:36:02;;;;;;;2.4;1.5;;;;;;;8.98;45.15332;941.8727;;;;
2021/04/04 06:38:28;;;;;;;1.2;1.1;;;;;;;9.86;43.13574;941.8069;;;;
2021/04/04 06:40:53;;;;;;;1.3;1.1;;;;;;;9.88;42.21582;941.7899;;;;
2021/04/04 06:43:20;;;;;;;1.8;0.9;;;;;;;9.45;43.4043;941.7886;;;;
2021/04/04 06:45:46;;;;;;;1.1;0.6;;;;;;;8.77;44.75488;941.8139;;;;
2021/04/04 06:48:11;;;;;;;1.5;1.2;;;;;;;7.39;47.88867;941.7606;;;;
2021/04/04 06:50:36;;;;;;;0.7;0.5;;;;;;;7.75;46.9873;941.746;;;;
2021/04/04 06:53:01;;;;;;;0.8;0.6;;;;;;;6.94;49.02734;941.689;;;;
2021/04/04 06:55:26;;;;;;;1.5;0.8;;;;;;;7.2;48.90918;941.6317;;;;
2021/04/04 06:57:51;;;;;;;0.8;0.6;;;;;;;8.07;46.7832;941.6611;;;;
2021/04/04 07:00:16;;;;;;;0.5;0.5;;;;;;;7.88;47.24023;941.6569;;;;
2021/04/04 07:02:42;;;;;;;11.5;0.9;;;;;;;7.7;47.84375;941.633;;;;
2021/04/04 07:05:07;;;;;;;0.8;0.4;;;;;;;8.49;46.5791;941.5931;;;;
2021/04/04 07:07:32;;;;;;;1.4;0.7;;;;;;;8.54;45.64063;941.5688;;;;
2021/04/04 07:09:57;;;;;;;1;0.8;;;;;;;9.33;45.37207;941.546;;;;
2021/04/04 07:12:22;;;;;;;0.7;0.7;;;;;;;10.99;42.75879;941.5122;;;;
2021/04/04 07:14:47;;;;;;;0.5;0.4;;;;;;;11.52;38.42676;941.4987;;;;
2021/04/04 07:17:14;;;;;;;1.1;0.8;;;;;;;11.83;40.24121;941.4517;;;;
2021/04/04 07:19:42;;;;;;;0.7;0.5;;;;;;;12.7;36.15723;941.4086;;;;
2021/04/04 07:22:07;;;;;;;1.5;0.8;;;;;;;13.42;35.69922;941.4113;;;;
2021/04/04 07:24:32;;;;;;;0.5;0.5;;;;;;;15.23;32.46582;941.3958;;;;
2021/04/04 07:26:57;;;;;;;0.7;0.6;;;;;;;14.61;32.03906;941.3672;;;;
2021/04/04 07:29:22;;;;;;;0.4;0.4;;;;;;;16.21;31.20898;941.3326;;;;
2021/04/04 07:31:47;;;;;;;1.1;0.7;;;;;;;16.43;30.88867;941.3155;;;;
2021/04/04 07:34:12;;;;;;;0.3;0.3;;;;;;;15.96;29.56055;941.3051;;;;
2021/04/04 07:36:38;;;;;;;0.4;0.3;;;;;;;16.35;31.44922;941.2434;;;;
2021/04/04 07:39:03;;;;;;;0.6;0.5;;;;;;;15.84;31.5293;941.2424;;;;
2021/04/04 07:41:29;;;;;;;1;0.8;;;;;;;14.65;30.03711;941.2103;;;;
2021/04/04 07:43:54;;;;;;;0.8;0.6;;;;;;;14.9;31.26563;941.2037;;;;
2021/04/04 07:46:21;;;;;;;0.8;0.7;;;;;;;16.96;29.26953;941.1609;;;;
2021/04/04 07:48:47;;;;;;;1.5;0.6;;;;;;;18.91;25.51172;941.1287;;;;
2021/04/04 07:51:13;;;;;;;0.4;0.4;;;;;;;18.08;27.07813;941.1465;;;;
2021/04/04 07:53:38;;;;;;;1.8;0.7;;;;;;;15.95;28.34668;941.2007;;;;
2021/04/04 07:56:03;;;;;;;0.9;0.7;;;;;;;16.9;26.85547;941.0215;;;;
2021/04/04 07:58:30;;;;;;;0.5;0.5;;;;;;;17.03;27.8252;940.9924;;;;
2021/04/04 08:00:55;;;;;;;0.8;0.5;;;;;;;16.95;27.47266;941.0083;;;;
2021/04/04 08:03:20;;;;;;;2.7;1.1;;;;;;;18.2;25.54004;940.8851;;;;
2021/04/04 08:05:45;;;;;;;1.4;0.8;;;;;;;19.75;23.37988;940.9487;;;;
2021/04/04 08:08:11;;;;;;;0.8;0.5;;;;;;;20.5;22.68359;941.0211;;;;
2021/04/04 08:10:36;;;;;;;1.1;0.6;;;;;;;17.43;25.15918;940.9842;;;;
2021/04/04 08:13:04;;;;;;;3.4;0.6;;;;;;;18.66;25.125;940.8602;;;;
2021/04/04 08:15:32;;;;;;;1.3;0.8;;;;;;;20.12;24.30957;940.9113;;;;
2021/04/04 08:17:57;;;;;;;1.1;0.8;;;;;;;20.29;23.73535;940.9924;;;;
2021/04/04 08:20:28;;;;;;;0.9;0.7;;;;;;;22.74;20.22754;940.9116;;;;
2021/04/04 08:22:53;;;;;;;1;0.8;;;;;;;23.47;19.47266;940.9106;;;;
2021/04/04 08:25:18;;;;;;;0.6;0.4;;;;;;;23.38;18.89258;940.903;;;;
2021/04/04 08:27:43;;;;;;;1.3;0.6;;;;;;;23.26;18.42969;940.8453;;;;
2021/04/04 08:30:10;;;;;;;0.7;0.6;;;;;;;22.98;19.22852;940.7969;;;;
2021/04/04 08:32:35;;;;;;;0.6;0.3;;;;;;;23.99;17.74121;940.8499;;;;
2021/04/04 08:35:00;;;;;;;1;0.6;;;;;;;25.07;16.4502;940.8656;;;;
2021/04/04 08:37:28;;;;;;;0.4;0.3;;;;;;;23.5;17.42773;940.7971;;;;
2021/04/04 08:39:53;;;;;;;0.7;0.5;;;;;;;22.17;20.31934;940.7938;;;;
2021/04/04 08:42:18;;;;;;;0.9;0.5;;;;;;;22.45;18.33691;940.7634;;;;
2021/04/04 08:44:45;;;;;;;2.5;0.8;;;;;;;23.76;18.56738;940.8169;;;;
2021/04/04 08:47:11;;;;;;;1.6;0.4;;;;;;;23.76;17.29688;940.8199;;;;
2021/04/04 08:49:36;;;;;;;0.4;0.4;;;;;;;25.16;17.39844;940.7793;;;;
2021/04/04 08:52:01;;;;;;;0.6;0.3;;;;;;;25.65;17.88965;940.7611;;;;
2021/04/04 08:54:27;;;;;;;1.8;0.9;;;;;;;23.98;18.69434;940.693;;;;
2021/04/04 08:56:52;;;;;;;0.8;0.4;;;;;;;23.56;18.26465;940.8139;;;;
2021/04/04 08:59:17;;;;;;;1.1;0.7;;;;;;;21.85;20.88965;940.7316;;;;
2021/04/04 09:01:42;;;;;;;3.3;0.5;;;;;;;22.28;20.28906;940.861;;;;
2021/04/04 09:04:07;;;;;;;0.9;0.4;;;;;;;22.84;19.57422;940.8723;;;;
2021/04/04 09:06:32;;;;;;;0.6;0.5;;;;;;;22.25;20.14648;940.845;;;;
2021/04/04 09:08:59;;;;;;;0.5;0.3;;;;;;;22.23;19.45313;940.8458;;;;
2021/04/04 09:11:24;;;;;;;1.9;0.6;;;;;;;22;19.73633;940.873;;;;
2021/04/04 09:13:50;;;;;;;1.5;0.6;;;;;;;22.83;19.13965;940.7988;;;;
2021/04/04 09:16:20;;;;;;;1;0.5;;;;;;;21.5;20.19434;940.8661;;;;
2021/04/04 09:18:46;;;;;;;0.4;0.3;;;;;;;19.48;20.5332;940.8876;;;;
2021/04/04 09:21:11;;;;;;;1.9;0.6;;;;;;;19.46;22.47852;940.8614;;;;
2021/04/04 09:23:38;;;;;;;8.2;1.1;;;;;;;18.39;21.35547;940.7565;;;;
2021/04/04 09:26:03;;;;;;;0.5;0.4;;;;;;;19.24;21.95508;940.7405;;;;
2021/04/04 09:28:28;;;;;;;0.4;0.3;;;;;;;19.4;22.52246;940.7654;;;;
2021/04/04 09:30:53;;;;;;;0.9;0.5;;;;;;;19.43;21.32324;940.7126;;;;
2021/04/04 09:33:19;;;;;;;1;0.7;;;;;;;20.37;19.9209;940.7083;;;;
2021/04/04 09:35:45;;;;;;;0.6;0.5;;;;;;;20.66;20.44824;940.7164;;;;
2021/04/04 09:38:09;;;;;;;7.5;0.9;;;;;;;21.12;19.86133;940.696;;;;
2021/04/04 09:40:34;;;;;;;0.2;0.1;;;;;;;20.32;20.3623;940.6545;;;;
2021/04/04 09:42:59;;;;;;;0.6;0.5;;;;;;;19.79;20.55957;940.6917;;;;
2021/04/04 09:45:25;;;;;;;0.6;0.5;;;;;;;19.77;20.43066;940.6945;;;;
2021/04/04 09:47:50;;;;;;;1.1;0.5;;;;;;;19.63;20.61035;940.717;;;;
2021/04/04 09:50:14;;;;;;;0.3;0.3;;;;;;;19.51;21.19922;940.6908;;;;
2021/04/04 09:52:40;;;;;;;0.4;0.4;;;;;;;18.81;22.03906;940.6517;;;;
2021/04/04 09:55:05;;;;;;;0.3;0.3;;;;;;;18.97;22.2207;940.6627;;;;
2021/04/04 09:57:30;;;;;;;0.8;0.5;;;;;;;18.22;21.82324;940.6108;;;;
2021/04/04 09:59:56;;;;;;;0.7;0.7;;;;;;;17.36;21.31641;940.6716;;;;
2021/04/04 10:02:21;;;;;;;1.4;0.4;;;;;;;17.79;23.38086;940.6948;;;;
2021/04/04 10:04:46;;;;;;;0.4;0.4;;;;;;;18.07;23.30273;940.584;;;;
2021/04/04 10:07:11;;;;;;;2.2;0.6;;;;;;;17.66;24;940.4839;;;;
2021/04/04 10:09:37;;;;;;;0.8;0.7;;;;;;;18.33;23.31641;940.522;;;;
2021/04/04 10:12:02;;;;;;;1.3;0.7;;;;;;;19.52;20.95508;940.6267;;;;
2021/04/04 10:14:27;;;;;;;1.4;0.5;;;;;;;19.38;21.50781;940.5978;;;;
2021/04/04 10:16:53;;;;;;;4.7;0.3;;;;;;;20.12;21.40332;940.5313;;;;
2021/04/04 10:19:20;;;;;;;0.8;0.4;;;;;;;19.98;19.77539;940.5212;;;;
2021/04/04 10:21:44;;;;;;;0.4;0.4;;;;;;;20.12;20.2832;940.5692;;;;
2021/04/04 10:24:11;;;;;;;1.1;0.6;;;;;;;20.91;18.95117;940.5022;;;;
2021/04/04 10:26:36;;;;;;;0.5;0.5;;;;;;;21.2;18.89355;940.4614;;;;
2021/04/04 10:29:05;;;;;;;1.3;0.7;;;;;;;21.61;18.56055;940.3725;;;;
2021/04/04 10:31:26;;;;;;;0.8;0.4;;;;;;;22.46;18.67773;940.2698;;;;
2021/04/04 10:33:51;;;;;;;0.9;0.5;;;;;;;20.36;20.25977;940.2805;;;;
2021/04/04 10:36:17;;;;;;;0.4;0.4;;;;;;;20.11;19.59375;940.2866;;;;
2021/04/04 10:38:43;;;;;;;0.5;0.5;;;;;;;20.45;20.92871;940.1373;;;;
2021/04/04 10:41:08;;;;;;;0.3;0.3;;;;;;;20.22;19.27246;940.1577;;;;
2021/04/04 10:43:33;;;;;;;0.2;0.2;;;;;;;19.86;20.83105;940.1828;;;;
2021/04/04 10:45:59;;;;;;;0.4;0.3;;;;;;;19.79;21.3291;940.1398;;;;
2021/04/04 10:48:23;;;;;;;0.3;0.3;;;;;;;20.28;20.76953;940.0948;;;;
2021/04/04 10:50:49;;;;;;;1.1;0.3;;;;;;;21.02;19.26074;940.1299;;;;
2021/04/04 10:53:13;;;;;;;0.6;0.4;;;;;;;21.79;18.90723;940.0334;;;;
2021/04/04 10:55:39;;;;;;;0.8;0.5;;;;;;;21.88;18.46582;939.9458;;;;
2021/04/04 10:58:04;;;;;;;0.4;0.2;;;;;;;22.22;17.4248;939.9435;;;;
2021/04/04 11:00:30;;;;;;;0.4;0.3;;;;;;;22.54;17.92969;939.7922;;;;
2021/04/04 11:02:55;;;;;;;1.4;0.6;;;;;;;21.35;18.0459;939.8597;;;;
2021/04/04 11:05:21;;;;;;;0.5;0.3;;;;;;;21.92;17.96387;939.7992;;;;
2021/04/04 11:07:46;;;;;;;0.2;0.2;;;;;;;21.24;18.50879;939.7737;;;;
2021/04/04 11:10:11;;;;;;;1.3;0.6;;;;;;;21.4;18.00098;939.7562;;;;
2021/04/04 11:12:36;;;;;;;1.4;0.1;;;;;;;20.87;17.96777;939.7067;;;;
2021/04/04 11:15:01;;;;;;;0.5;0.4;;;;;;;19.83;19.99023;939.7117;;;;
2021/04/04 11:17:26;;;;;;;1.2;0.5;;;;;;;20.06;19.07813;939.7322;;;;
2021/04/04 11:19:51;;;;;;;0.2;0.2;;;;;;;20.4;19.25684;939.6641;;;;
2021/04/04 11:22:18;;;;;;;0.4;0.2;;;;;;;20.14;18.98828;939.6002;;;;
2021/04/04 11:24:43;;;;;;;0.4;0.3;;;;;;;20.5;19.37793;939.6661;;;;
2021/04/04 11:27:09;;;;;;;0.6;0.4;;;;;;;21.19;18.69434;939.6088;;;;
2021/04/04 11:29:34;;;;;;;0.6;0.3;;;;;;;21;17.92676;939.5963;;;;
2021/04/04 11:31:59;;;;;;;0.3;0.2;;;;;;;20.95;18.69629;939.5683;;;;
2021/04/04 11:34:25;;;;;;;0.6;0.4;;;;;;;21.09;18.9248;939.567;;;;
2021/04/04 11:36:50;;;;;;;0.8;0.6;;;;;;;21.4;17.35742;939.5853;;;;
2021/04/04 11:39:15;;;;;;;0.2;0.2;;;;;;;21.5;17.5957;939.5184;;;;
2021/04/04 11:41:41;;;;;;;0.2;0.2;;;;;;;21.44;17.93262;939.5536;;;;
2021/04/04 11:44:06;;;;;;;0.2;0.2;;;;;;;22.29;16.80566;939.5478;;;;
2021/04/04 11:46:33;;;;;;;1.3;0.5;;;;;;;22.24;18.33984;939.4988;;;;
2021/04/04 11:48:58;;;;;;;0.4;0.4;;;;;;;21.89;18.80664;939.4047;;;;
2021/04/04 11:51:23;;;;;;;0.3;0.3;;;;;;;21.3;18.65234;939.5097;;;;
2021/04/04 11:53:48;;;;;;;0.3;0.3;;;;;;;21.8;17.2207;939.4258;;;;
2021/04/04 11:56:13;;;;;;;0.1;0.1;;;;;;;21.25;19.80859;939.4051;;;;
2021/04/04 11:58:38;;;;;;;0.4;0.4;;;;;;;21.02;20.03223;939.2743;;;;
2021/04/04 12:01:05;;;;;;;0.4;0.4;;;;;;;20.52;18.95801;939.2844;;;;
2021/04/04 12:03:30;;;;;;;0.4;0.3;;;;;;;20.73;19.30566;939.3041;;;;
2021/04/04 12:05:56;;;;;;;2.5;0.4;;;;;;;20.41;20.38965;939.1989;;;;
2021/04/04 12:08:20;;;;;;;0.5;0.3;;;;;;;19.5;20.96582;939.2442;;;;
2021/04/04 12:10:46;;;;;;;0.7;0.4;;;;;;;20.06;19.39355;939.1727;;;;
2021/04/04 12:13:11;;;;;;;0.2;0.2;;;;;;;19.81;21.2832;939.2019;;;;
2021/04/04 12:15:37;;;;;;;0.7;0.2;;;;;;;19.42;20.8916;939.1814;;;;
2021/04/04 12:18:04;;;;;;;0.3;0.3;;;;;;;19.44;20.69531;939.122;;;;
2021/04/04 12:20:29;;;;;;;0.2;0.2;;;;;;;20.27;20.30176;939.0584;;;;
2021/04/04 12:22:55;;;;;;;0.4;0.4;;;;;;;21.03;20.10254;939.1002;;;;
2021/04/04 12:25:20;;;;;;;1;0.5;;;;;;;20.72;19.77344;938.9537;;;;
2021/04/04 12:27:47;;;;;;;0.2;0.2;;;;;;;20.11;20.83105;938.9967;;;;
2021/04/04 12:30:15;;;;;;;0.5;0.4;;;;;;;20.46;21.02246;938.9666;;;;
2021/04/04 12:32:39;;;;;;;1.6;0.7;;;;;;;19.43;23.10645;939.0045;;;;
2021/04/04 12:35:04;;;;;;;0.5;0.3;;;;;;;18.58;23.56152;939.0817;;;;
2021/04/04 12:37:31;;;;;;;0.4;0.4;;;;;;;18.36;23.29395;939.0349;;;;
2021/04/04 12:39:57;;;;;;;0.2;0.2;;;;;;;18;23.94922;938.9925;;;;
2021/04/04 12:42:22;;;;;;;0.6;0.2;;;;;;;18.5;24.24414;939.0381;;;;
2021/04/04 12:44:47;;;;;;;0.7;0.3;;;;;;;17.28;24.94238;939.0009;;;;
2021/04/04 12:47:12;;;;;;;0.5;0.4;;;;;;;17.72;24.51367;938.9063;;;;
2021/04/04 12:49:37;;;;;;;3.3;0.5;;;;;;;17.27;25.20801;938.9045;;;;
2021/04/04 12:52:02;;;;;;;1.1;0.8;;;;;;;16.8;26.14258;938.7198;;;;
2021/04/04 12:54:27;;;;;;;2;0.6;;;;;;;16.28;26.75977;938.9199;;;;
2021/04/04 12:56:53;;;;;;;1.4;0.7;;;;;;;15.84;27.72656;938.8583;;;;
2021/04/04 12:59:18;;;;;;;0.7;0.4;;;;;;;15.76;26.80859;938.7062;;;;
2021/04/04 13:01:45;;;;;;;2.2;0.6;;;;;;;15.75;28.91016;938.7609;;;;
2021/04/04 13:04:10;;;;;;;0.4;0.4;;;;;;;16.01;28.43066;938.7256;;;;
2021/04/04 13:06:36;;;;;;;0.7;0.6;;;;;;;15.93;27.8252;938.7899;;;;
2021/04/04 13:09:01;;;;;;;0.4;0.4;;;;;;;15.99;27.88574;938.688;;;;
2021/04/04 13:11:26;;;;;;;0.4;0.4;;;;;;;15.85;27.83105;938.655;;;;
2021/04/04 13:13:51;;;;;;;0.3;0.3;;;;;;;16.07;28.91992;938.5365;;;;
2021/04/04 13:16:17;;;;;;;1;0.6;;;;;;;16.47;28.1709;938.6472;;;;
2021/04/04 13:18:42;;;;;;;0.7;0.5;;;;;;;16.37;27.54004;938.6473;;;;
2021/04/04 13:21:07;;;;;;;0.8;0.6;;;;;;;16.14;27.76855;938.6024;;;;
2021/04/04 13:23:34;;;;;;;0.7;0.5;;;;;;;15.96;27.75684;938.6675;;;;
2021/04/04 13:25:59;;;;;;;1.1;0.3;;;;;;;15.88;27.60156;938.6322;;;;
2021/04/04 13:28:25;;;;;;;0.7;0.5;;;;;;;15.6;27.20313;938.579;;;;
2021/04/04 13:30:50;;;;;;;0.4;0.4;;;;;;;15.57;28.77246;938.55;;;;
2021/04/04 13:33:16;;;;;;;1;0.5;;;;;;;15.64;28.48828;938.5941;;;;
2021/04/04 13:35:41;;;;;;;0.6;0.6;;;;;;;15.51;27.48633;938.541;;;;
2021/04/04 13:38:06;;;;;;;0.6;0.4;;;;;;;15.53;28.41211;938.5432;;;;
2021/04/04 13:40:33;;;;;;;1.1;0.6;;;;;;;14.81;30.24414;938.5283;;;;
2021/04/04 13:42:58;;;;;;;0.4;0.4;;;;;;;14.68;29.80957;938.4514;;;;
2021/04/04 13:45:24;;;;;;;2.7;0.6;;;;;;;14.63;30.75098;938.4341;;;;
2021/04/04 13:47:49;;;;;;;4.1;0.5;;;;;;;14.42;30.25195;938.4667;;;;
2021/04/04 13:50:14;;;;;;;0.6;0.6;;;;;;;14.46;30.15039;938.466;;;;
2021/04/04 13:52:39;;;;;;;0.5;0.3;;;;;;;14.58;29.7207;938.4229;;;;
2021/04/04 13:55:04;;;;;;;0.6;0.4;;;;;;;14.31;30.66992;938.4174;;;;
2021/04/04 13:57:29;;;;;;;0.4;0.3;;;;;;;13.73;30.44531;938.4274;;;;
2021/04/04 13:59:54;;;;;;;0.5;0.5;;;;;;;13.8;32.03809;938.408;;;;
2021/04/04 14:02:20;;;;;;;1;0.7;;;;;;;13.63;31.13965;938.4011;;;;
2021/04/04 14:04:46;;;;;;;0.5;0.4;;;;;;;13.65;30.60156;938.4059;;;;
2021/04/04 14:07:11;;;;;;;1.5;0.6;;;;;;;13.48;31.12891;938.3652;;;;
2021/04/04 14:09:36;;;;;;;0.7;0.4;;;;;;;13.25;31.49219;938.3883;;;;
2021/04/04 14:12:02;;;;;;;0.6;0.5;;;;;;;13.23;31.35254;938.3971;;;;
2021/04/04 14:14:28;;;;;;;1.3;0.7;;;;;;;13.01;33.11621;938.389;;;;
2021/04/04 14:16:53;;;;;;;0.7;0.3;;;;;;;12.99;31.74902;938.3795;;;;
2021/04/04 14:19:18;;;;;;;0.4;0.4;;;;;;;12.92;31.64063;938.3411;;;;
2021/04/04 14:21:43;;;;;;;0.4;0.4;;;;;;;12.84;32.20801;938.3186;;;;
2021/04/04 14:24:08;;;;;;;1;0.4;;;;;;;12.78;31.7793;938.2025;;;;